Terminal Aerodrome Forecast
Issued by NWS

Home | Current Version | Previous Version | Text Only | Print | Product List | Glossary On
Versions: 1 2 3 4 5 6 7 8 9 10 11 12 13 14 15 16 17 18 19
000
FTUS43 KGRB 231135
TAFRHI
TAF
KRHI 231135Z 2312/2412 36012G22KT 6SM -SN BR OVC012
      TEMPO 2312/2314 3SM -SN
     FM231400 35012KT P6SM BKN012
     FM231900 35011KT P6SM BKN025
     FM232100 34010KT P6SM SCT050
     FM240500 VRB03KT P6SM BKN200=

USA.gov is the U.S. government's official web portal to all federal, state and local government web resources and services.